Time;durP1;ratioP1;P1;durP2;ratioP2;P2;SDS_P1;SDS_P2;PMS_P1;PMS_P2;Temp;Humidity;BMP_temperature;BMP_pressure;BME280_temperature;BME280_humidity;BME280_pressure;Samples;Min_cycle;Max_cycle;Signal;HPM_P1;HPM_P2
2022/10/09 00:00:11;;;;;;;9.30;4.53;;;;;;;;;;629108;23;962;-63
2022/10/09 00:00:26;;;;;;;8.05;4.60;;;;;;;;;;626745;23;949;-63
2022/10/09 00:00:41;;;;;;;9.03;4.80;;;;;;;;;;626207;23;875;-63
2022/10/09 00:01:10;;;;;;;9.37;5.20;;;;;;;;;;625980;23;1010;-63
2022/10/09 00:01:28;;;;;;;9.10;4.82;;;;;;;;;;626200;23;946;-63
2022/10/09 00:01:43;;;;;;;7.55;4.90;;;;;;;;;;629365;23;1311;-63
2022/10/09 00:01:58;;;;;;;7.43;4.90;;;;;;;;;;628487;23;871;-64
2022/10/09 00:02:14;;;;;;;8.15;5.20;;;;;;;;;;625153;23;1310;-63
2022/10/09 00:02:29;;;;;;;8.30;5.23;;;;;;;;;;621065;23;891;-63
2022/10/09 00:02:44;;;;;;;7.90;5.27;;;;;;;;;;623683;23;933;-63
2022/10/09 00:03:00;;;;;;;8.27;5.30;;;;;;;;;;622305;23;956;-63
2022/10/09 00:03:16;;;;;;;9.82;5.20;;;;;;;;;;623949;23;983;-63
2022/10/09 00:03:32;;;;;;;8.10;4.88;;;;;;;;;;621348;23;1177;-63
2022/10/09 00:03:49;;;;;;;6.23;4.50;;;;;;;;;;622068;23;911;-63
2022/10/09 00:04:05;;;;;;;8.55;4.80;;;;;;;;;;624498;23;936;-63
2022/10/09 00:04:20;;;;;;;9.25;4.90;;;;;;;;;;628037;23;903;-63
2022/10/09 00:04:35;;;;;;;8.77;4.70;;;;;;;;;;629039;23;1013;-63
2022/10/09 00:04:50;;;;;;;8.27;4.80;;;;;;;;;;630332;23;1033;-64
2022/10/09 00:05:06;;;;;;;10.00;5.05;;;;;;;;;;626059;23;1328;-63
2022/10/09 00:05:25;;;;;;;10.10;5.30;;;;;;;;;;627902;23;858;-63
2022/10/09 00:05:40;;;;;;;8.57;5.13;;;;;;;;;;626801;23;879;-63
2022/10/09 00:05:56;;;;;;;8.63;4.85;;;;;;;;;;626448;23;894;-63
2022/10/09 00:06:14;;;;;;;7.87;5.00;;;;;;;;;;626898;23;1037;-63
2022/10/09 00:06:32;;;;;;;7.80;4.97;;;;;;;;;;626251;23;928;-63
2022/10/09 00:06:47;;;;;;;7.53;4.75;;;;;;;;;;627224;23;963;-63
2022/10/09 00:07:02;;;;;;;8.37;5.00;;;;;;;;;;625463;23;1252;-63
2022/10/09 00:07:17;;;;;;;9.20;5.00;;;;;;;;;;626846;23;1953;-63
2022/10/09 00:07:33;;;;;;;9.77;4.82;;;;;;;;;;627842;23;876;-63
2022/10/09 00:07:48;;;;;;;8.73;4.60;;;;;;;;;;626336;23;1426;-63
2022/10/09 00:08:04;;;;;;;9.57;4.70;;;;;;;;;;626653;23;974;-63
2022/10/09 00:08:19;;;;;;;10.05;5.15;;;;;;;;;;623810;23;1045;-63
2022/10/09 00:08:38;;;;;;;10.33;5.20;;;;;;;;;;619781;23;1134;-63
2022/10/09 00:08:53;;;;;;;9.35;5.10;;;;;;;;;;621986;23;829;-63
2022/10/09 00:09:08;;;;;;;7.37;4.90;;;;;;;;;;621131;23;904;-63
2022/10/09 00:09:24;;;;;;;8.07;4.90;;;;;;;;;;620926;23;849;-63
2022/10/09 00:09:39;;;;;;;7.97;4.97;;;;;;;;;;620719;23;910;-63
2022/10/09 00:09:55;;;;;;;6.40;4.55;;;;;;;;;;622924;23;855;-63
2022/10/09 00:10:10;;;;;;;6.30;4.30;;;;;;;;;;625413;23;941;-63
2022/10/09 00:10:25;;;;;;;6.80;4.63;;;;;;;;;;628001;23;1049;-63
2022/10/09 00:10:42;;;;;;;7.40;4.95;;;;;;;;;;629059;23;861;-63
2022/10/09 00:10:57;;;;;;;7.22;4.80;;;;;;;;;;626702;23;1244;-63
2022/10/09 00:11:17;;;;;;;6.03;4.43;;;;;;;;;;626458;23;1209;-63
2022/10/09 00:11:33;;;;;;;6.00;4.40;;;;;;;;;;625652;23;907;-63
2022/10/09 00:11:48;;;;;;;7.35;4.45;;;;;;;;;;626623;23;994;-63
2022/10/09 00:12:03;;;;;;;6.20;4.20;;;;;;;;;;627220;23;884;-63
2022/10/09 00:12:18;;;;;;;6.78;4.30;;;;;;;;;;627029;23;912;-63
2022/10/09 00:12:34;;;;;;;10.07;4.30;;;;;;;;;;623584;23;1458;-63
2022/10/09 00:12:49;;;;;;;9.70;4.27;;;;;;;;;;620718;23;1107;-63
2022/10/09 00:13:04;;;;;;;8.00;4.40;;;;;;;;;;624077;23;844;-63
2022/10/09 00:13:20;;;;;;;8.35;4.68;;;;;;;;;;620425;23;1047;-63
2022/10/09 00:13:36;;;;;;;7.83;4.80;;;;;;;;;;618103;23;1090;-62
2022/10/09 00:13:52;;;;;;;7.93;5.10;;;;;;;;;;617057;23;826;-62
2022/10/09 00:14:07;;;;;;;9.07;5.10;;;;;;;;;;620870;23;1495;-63
2022/10/09 00:14:23;;;;;;;10.50;5.20;;;;;;;;;;620528;23;1155;-63
2022/10/09 00:14:38;;;;;;;9.17;5.10;;;;;;;;;;620306;23;913;-63
2022/10/09 00:14:53;;;;;;;7.00;4.73;;;;;;;;;;620461;23;1158;-62
2022/10/09 00:15:09;;;;;;;9.18;5.07;;;;;;;;;;620351;23;998;-63
2022/10/09 00:15:25;;;;;;;9.40;5.38;;;;;;;;;;621950;23;923;-63
2022/10/09 00:15:43;;;;;;;8.37;5.00;;;;;;;;;;621396;23;1285;-63
2022/10/09 00:16:02;;;;;;;8.77;4.90;;;;;;;;;;618809;23;1162;-63
2022/10/09 00:16:19;;;;;;;7.53;4.90;;;;;;;;;;622973;23;1380;-64
2022/10/09 00:16:34;;;;;;;7.65;4.93;;;;;;;;;;623554;23;995;-63
2022/10/09 00:16:50;;;;;;;8.70;5.13;;;;;;;;;;625562;23;1006;-63
2022/10/09 00:17:05;;;;;;;9.57;5.30;;;;;;;;;;627039;23;832;-63
2022/10/09 00:17:20;;;;;;;8.82;5.07;;;;;;;;;;627001;23;892;-63
2022/10/09 00:17:36;;;;;;;8.50;5.13;;;;;;;;;;628530;23;884;-63
2022/10/09 00:17:51;;;;;;;9.00;5.40;;;;;;;;;;626352;23;1216;-63
2022/10/09 00:18:08;;;;;;;8.73;5.10;;;;;;;;;;623609;23;1340;-63
2022/10/09 00:18:23;;;;;;;10.60;5.18;;;;;;;;;;624206;23;1327;-62
2022/10/09 00:18:39;;;;;;;9.37;5.27;;;;;;;;;;623363;23;1018;-63
2022/10/09 00:18:56;;;;;;;8.82;5.07;;;;;;;;;;623627;23;1054;-62
2022/10/09 00:19:11;;;;;;;9.15;5.20;;;;;;;;;;622984;23;1200;-63
2022/10/09 00:19:26;;;;;;;7.50;5.28;;;;;;;;;;623786;23;910;-63
2022/10/09 00:19:41;;;;;;;6.90;5.10;;;;;;;;;;624030;23;982;-63
2022/10/09 00:19:57;;;;;;;7.77;5.10;;;;;;;;;;627698;23;1053;-63
2022/10/09 00:20:12;;;;;;;8.43;5.10;;;;;;;;;;627195;23;1196;-63
2022/10/09 00:20:27;;;;;;;7.82;4.80;;;;;;;;;;626486;23;1141;-62
2022/10/09 00:20:45;;;;;;;8.30;4.80;;;;;;;;;;627037;23;1122;-63
2022/10/09 00:21:01;;;;;;;9.13;4.90;;;;;;;;;;627161;23;962;-63
2022/10/09 00:21:22;;;;;;;8.82;4.68;;;;;;;;;;625847;23;915;-63
2022/10/09 00:21:37;;;;;;;7.25;4.45;;;;;;;;;;626501;23;1605;-63
2022/10/09 00:21:52;;;;;;;6.33;4.43;;;;;;;;;;626696;23;891;-63
2022/10/09 00:22:08;;;;;;;7.27;4.40;;;;;;;;;;627847;23;1018;-63
2022/10/09 00:22:23;;;;;;;8.53;4.60;;;;;;;;;;628235;23;1461;-63
2022/10/09 00:22:38;;;;;;;7.65;4.55;;;;;;;;;;628498;23;926;-63
2022/10/09 00:22:54;;;;;;;7.13;4.53;;;;;;;;;;629199;23;969;-63
2022/10/09 00:23:13;;;;;;;7.45;4.60;;;;;;;;;;630006;23;1049;-63
2022/10/09 00:23:28;;;;;;;7.15;4.65;;;;;;;;;;628862;23;895;-63
2022/10/09 00:23:43;;;;;;;7.53;4.50;;;;;;;;;;626887;23;1559;-63
2022/10/09 00:24:01;;;;;;;7.27;4.60;;;;;;;;;;627099;23;1264;-63
2022/10/09 00:24:16;;;;;;;8.02;4.80;;;;;;;;;;624830;23;1256;-63
2022/10/09 00:24:31;;;;;;;8.17;4.70;;;;;;;;;;623677;23;1110;-63
2022/10/09 00:24:47;;;;;;;6.57;4.47;;;;;;;;;;624196;23;983;-63
2022/10/09 00:25:02;;;;;;;6.40;4.40;;;;;;;;;;623596;23;1300;-63
2022/10/09 00:25:18;;;;;;;7.07;4.53;;;;;;;;;;623663;23;796;-63
2022/10/09 00:25:34;;;;;;;6.87;4.60;;;;;;;;;;622299;23;1178;-63
2022/10/09 00:25:58;;;;;;;7.10;4.50;;;;;;;;;;624637;23;804;-63
2022/10/09 00:26:14;;;;;;;8.27;4.50;;;;;;;;;;627396;23;887;-63
2022/10/09 00:26:30;;;;;;;8.95;4.88;;;;;;;;;;626906;23;851;-63
2022/10/09 00:26:46;;;;;;;7.90;4.88;;;;;;;;;;626294;23;977;-63
2022/10/09 00:27:02;;;;;;;6.83;4.30;;;;;;;;;;626462;23;1223;-63
2022/10/09 00:27:17;;;;;;;7.13;4.35;;;;;;;;;;626866;23;1967;-63
2022/10/09 00:27:32;;;;;;;10.97;4.73;;;;;;;;;;626550;23;1326;-63
2022/10/09 00:27:48;;;;;;;11.10;4.97;;;;;;;;;;627270;23;990;-63
2022/10/09 00:28:04;;;;;;;8.90;5.05;;;;;;;;;;620908;23;1202;-63
2022/10/09 00:28:21;;;;;;;8.48;5.43;;;;;;;;;;624571;23;907;-64
2022/10/09 00:28:37;;;;;;;7.47;5.60;;;;;;;;;;624086;23;1201;-63
2022/10/09 00:28:53;;;;;;;7.57;5.53;;;;;;;;;;624187;23;955;-63
2022/10/09 00:29:08;;;;;;;8.02;5.07;;;;;;;;;;623426;23;845;-63
2022/10/09 00:29:23;;;;;;;8.50;4.97;;;;;;;;;;622401;23;1209;-63
2022/10/09 00:29:39;;;;;;;8.00;4.90;;;;;;;;;;620769;23;1142;-63
2022/10/09 00:29:54;;;;;;;6.90;4.68;;;;;;;;;;623100;23;991;-63
2022/10/09 00:30:10;;;;;;;7.20;4.70;;;;;;;;;;625777;23;899;-63
2022/10/09 00:30:25;;;;;;;7.15;4.68;;;;;;;;;;626893;23;1110;-63
2022/10/09 00:30:40;;;;;;;6.63;4.53;;;;;;;;;;626578;23;922;-63
2022/10/09 00:30:56;;;;;;;7.33;4.50;;;;;;;;;;624094;23;836;-63
2022/10/09 00:31:12;;;;;;;7.53;4.50;;;;;;;;;;619626;23;1035;-63
2022/10/09 00:31:28;;;;;;;7.47;4.60;;;;;;;;;;623236;23;970;-63
2022/10/09 00:31:43;;;;;;;7.57;4.50;;;;;;;;;;626495;23;902;-63
2022/10/09 00:31:58;;;;;;;7.43;4.43;;;;;;;;;;624002;23;966;-64
2022/10/09 00:32:14;;;;;;;7.47;4.37;;;;;;;;;;623846;23;1010;-63
2022/10/09 00:32:29;;;;;;;7.50;4.30;;;;;;;;;;622236;23;939;-63
2022/10/09 00:32:44;;;;;;;6.50;4.17;;;;;;;;;;624976;23;824;-63
2022/10/09 00:33:00;;;;;;;7.95;4.20;;;;;;;;;;624456;23;1181;-63
2022/10/09 00:33:15;;;;;;;9.23;4.40;;;;;;;;;;624111;23;1242;-63
2022/10/09 00:33:30;;;;;;;7.43;4.23;;;;;;;;;;619889;23;1278;-63
2022/10/09 00:33:46;;;;;;;7.60;4.38;;;;;;;;;;617695;23;946;-63
2022/10/09 00:34:01;;;;;;;7.50;4.50;;;;;;;;;;620976;23;860;-63
2022/10/09 00:34:16;;;;;;;6.77;4.30;;;;;;;;;;621151;23;859;-63
2022/10/09 00:34:32;;;;;;;8.60;4.38;;;;;;;;;;620949;23;931;-63
2022/10/09 00:34:47;;;;;;;10.20;4.40;;;;;;;;;;620578;23;1102;-63
2022/10/09 00:35:03;;;;;;;9.80;4.30;;;;;;;;;;623409;23;804;-63
2022/10/09 00:35:18;;;;;;;8.35;4.40;;;;;;;;;;624370;23;1249;-63
2022/10/09 00:35:37;;;;;;;6.73;4.40;;;;;;;;;;626887;23;966;-63
2022/10/09 00:35:52;;;;;;;6.20;4.43;;;;;;;;;;629301;23;898;-62
2022/10/09 00:36:11;;;;;;;6.90;4.50;;;;;;;;;;623790;23;1189;-63
2022/10/09 00:36:26;;;;;;;6.63;4.50;;;;;;;;;;623543;23;979;-63
2022/10/09 00:36:41;;;;;;;7.10;4.40;;;;;;;;;;621117;23;1328;-63
2022/10/09 00:36:57;;;;;;;9.57;4.60;;;;;;;;;;619661;23;889;-63
2022/10/09 00:37:12;;;;;;;9.87;4.40;;;;;;;;;;622904;23;1150;-63
2022/10/09 00:37:27;;;;;;;8.10;4.40;;;;;;;;;;622644;23;824;-63
2022/10/09 00:37:43;;;;;;;7.40;4.60;;;;;;;;;;624430;23;804;-63
2022/10/09 00:37:58;;;;;;;6.90;4.80;;;;;;;;;;625016;23;1216;-63
2022/10/09 00:38:13;;;;;;;8.03;5.23;;;;;;;;;;620170;23;1149;-63
2022/10/09 00:38:29;;;;;;;9.52;5.20;;;;;;;;;;621650;23;1085;-63
2022/10/09 00:38:44;;;;;;;10.23;5.13;;;;;;;;;;620466;23;1014;-63
2022/10/09 00:38:59;;;;;;;10.32;5.40;;;;;;;;;;623712;23;918;-63
2022/10/09 00:39:15;;;;;;;9.37;5.33;;;;;;;;;;620709;23;1131;-63
2022/10/09 00:39:30;;;;;;;10.00;5.17;;;;;;;;;;617788;23;1197;-63
2022/10/09 00:39:45;;;;;;;10.40;5.18;;;;;;;;;;618570;23;911;-63
2022/10/09 00:40:01;;;;;;;11.03;5.30;;;;;;;;;;619858;23;1170;-63
2022/10/09 00:40:16;;;;;;;11.97;5.23;;;;;;;;;;624653;23;1268;-64
2022/10/09 00:40:32;;;;;;;10.27;5.23;;;;;;;;;;625771;23;1205;-63
2022/10/09 00:40:47;;;;;;;9.20;5.18;;;;;;;;;;626825;23;998;-62
2022/10/09 00:41:03;;;;;;;8.68;4.75;;;;;;;;;;627064;23;850;-63
2022/10/09 00:41:24;;;;;;;9.07;4.50;;;;;;;;;;626322;23;1216;-63
2022/10/09 00:41:39;;;;;;;8.70;4.65;;;;;;;;;;623046;23;1262;-64
2022/10/09 00:41:55;;;;;;;8.65;4.75;;;;;;;;;;625784;23;805;-63
2022/10/09 00:42:11;;;;;;;8.57;4.93;;;;;;;;;;627047;23;987;-64
2022/10/09 00:42:26;;;;;;;7.97;4.97;;;;;;;;;;625834;23;1090;-63
2022/10/09 00:42:44;;;;;;;8.33;5.10;;;;;;;;;;626309;23;862;-62
2022/10/09 00:42:59;;;;;;;7.88;4.80;;;;;;;;;;623697;23;1430;-63
2022/10/09 00:43:17;;;;;;;6.47;4.22;;;;;;;;;;625995;23;967;-63
2022/10/09 00:43:43;;;;;;;7.57;4.10;;;;;;;;;;628055;23;1062;-62
2022/10/09 00:44:00;;;;;;;6.22;4.00;;;;;;;;;;625725;23;1231;-63
2022/10/09 00:44:46;;;;;;;7.38;4.32;;;;;;;;;;620876;23;1420;-63
2022/10/09 00:45:03;;;;;;;6.88;4.22;;;;;;;;;;619284;23;1284;-63
2022/10/09 00:45:20;;;;;;;6.57;4.10;;;;;;;;;;617852;23;1328;-63
2022/10/09 00:45:35;;;;;;;5.85;4.30;;;;;;;;;;617775;23;900;-63
2022/10/09 00:45:54;;;;;;;7.75;4.53;;;;;;;;;;617153;23;962;-62
2022/10/09 00:46:19;;;;;;;8.70;4.50;;;;;;;;;;626697;23;1370;-63
2022/10/09 00:46:51;;;;;;;8.57;4.63;;;;;;;;;;630258;23;953;-63
2022/10/09 00:47:32;;;;;;;8.30;4.60;;;;;;;;;;629300;23;1152;-63
2022/10/09 00:47:58;;;;;;;8.40;4.32;;;;;;;;;;617789;23;1331;-63
2022/10/09 00:48:15;;;;;;;7.78;4.45;;;;;;;;;;630162;23;911;-63
2022/10/09 00:48:32;;;;;;;7.72;4.55;;;;;;;;;;630034;23;1103;-63
2022/10/09 00:48:55;;;;;;;6.72;4.43;;;;;;;;;;625192;23;1248;-63
2022/10/09 00:49:25;;;;;;;5.60;4.30;;;;;;;;;;627358;23;965;-63
2022/10/09 00:49:41;;;;;;;6.53;4.10;;;;;;;;;;628063;23;927;-63
2022/10/09 00:50:09;;;;;;;6.97;4.10;;;;;;;;;;627157;23;1216;-63
2022/10/09 00:50:39;;;;;;;7.35;4.40;;;;;;;;;;627157;23;880;-63
2022/10/09 00:50:57;;;;;;;7.50;4.57;;;;;;;;;;623665;23;1339;-63
2022/10/09 00:51:12;;;;;;;7.07;4.40;;;;;;;;;;627149;23;1406;-63
2022/10/09 00:51:28;;;;;;;8.17;4.43;;;;;;;;;;626992;23;887;-63
2022/10/09 00:51:46;;;;;;;7.90;4.57;;;;;;;;;;625903;23;1034;-63
2022/10/09 00:52:05;;;;;;;7.60;4.55;;;;;;;;;;630351;23;819;-63
2022/10/09 00:52:22;;;;;;;8.23;4.75;;;;;;;;;;628171;23;886;-63
2022/10/09 00:52:38;;;;;;;8.00;4.85;;;;;;;;;;630134;23;812;-63
2022/10/09 00:52:57;;;;;;;7.55;4.60;;;;;;;;;;626554;23;1181;-63
2022/10/09 00:53:16;;;;;;;8.15;4.55;;;;;;;;;;628451;23;1192;-63
2022/10/09 00:53:31;;;;;;;7.72;4.40;;;;;;;;;;626633;23;887;-63
2022/10/09 00:53:46;;;;;;;7.23;4.43;;;;;;;;;;626964;23;927;-63
2022/10/09 00:54:07;;;;;;;6.57;4.50;;;;;;;;;;626516;23;1260;-62
2022/10/09 00:54:25;;;;;;;6.82;4.47;;;;;;;;;;627203;23;1097;-63
2022/10/09 00:54:41;;;;;;;7.03;4.53;;;;;;;;;;627216;23;977;-63
2022/10/09 00:54:58;;;;;;;6.90;4.40;;;;;;;;;;626478;23;1198;-63
2022/10/09 00:55:14;;;;;;;6.68;4.30;;;;;;;;;;621472;23;951;-63
2022/10/09 00:55:33;;;;;;;6.13;3.95;;;;;;;;;;622219;23;1032;-63
2022/10/09 00:55:49;;;;;;;6.97;4.13;;;;;;;;;;623534;23;1038;-63
2022/10/09 00:56:05;;;;;;;7.28;4.13;;;;;;;;;;627029;23;876;-63
2022/10/09 00:56:20;;;;;;;8.10;4.63;;;;;;;;;;625475;23;882;-63
2022/10/09 00:56:36;;;;;;;8.20;4.97;;;;;;;;;;625787;23;942;-63
2022/10/09 00:56:52;;;;;;;6.95;4.40;;;;;;;;;;628411;23;1025;-62
2022/10/09 00:57:08;;;;;;;7.53;4.18;;;;;;;;;;628540;23;1498;-64
2022/10/09 00:57:24;;;;;;;9.83;4.53;;;;;;;;;;628654;23;1188;-63
2022/10/09 00:57:41;;;;;;;10.77;4.40;;;;;;;;;;628548;23;994;-62
2022/10/09 00:57:59;;;;;;;8.75;4.03;;;;;;;;;;630134;23;998;-63
2022/10/09 00:58:15;;;;;;;8.27;4.18;;;;;;;;;;629585;23;977;-63
2022/10/09 00:58:30;;;;;;;7.10;4.20;;;;;;;;;;626033;23;1247;-62
2022/10/09 00:58:51;;;;;;;6.47;4.23;;;;;;;;;;626501;23;934;-63
2022/10/09 00:59:07;;;;;;;6.97;4.55;;;;;;;;;;626842;23;1418;-63
2022/10/09 00:59:23;;;;;;;6.50;4.27;;;;;;;;;;628696;23;1106;-63
2022/10/09 00:59:39;;;;;;;6.80;4.35;;;;;;;;;;626814;23;1220;-63
2022/10/09 00:59:54;;;;;;;8.30;4.87;;;;;;;;;;626145;23;911;-63
2022/10/09 01:00:11;;;;;;;7.50;4.83;;;;;;;;;;626583;23;903;-63
2022/10/09 01:00:26;;;;;;;7.75;4.60;;;;;;;;;;629178;23;904;-63
2022/10/09 01:00:42;;;;;;;9.73;5.05;;;;;;;;;;626799;23;876;-63
2022/10/09 01:00:57;;;;;;;9.57;5.20;;;;;;;;;;626116;23;958;-63
2022/10/09 01:01:12;;;;;;;8.70;4.90;;;;;;;;;;625908;23;838;-63
2022/10/09 01:01:28;;;;;;;9.25;4.78;;;;;;;;;;626716;23;922;-63
2022/10/09 01:01:43;;;;;;;8.67;4.73;;;;;;;;;;626383;23;1304;-63
2022/10/09 01:01:58;;;;;;;7.60;4.70;;;;;;;;;;627010;23;1004;-63
2022/10/09 01:02:14;;;;;;;8.30;4.85;;;;;;;;;;625723;23;1064;-63
2022/10/09 01:02:29;;;;;;;8.10;4.90;;;;;;;;;;626397;23;811;-63
2022/10/09 01:02:44;;;;;;;6.10;4.70;;;;;;;;;;628719;23;881;-63
2022/10/09 01:03:00;;;;;;;7.15;4.72;;;;;;;;;;628080;23;816;-63
2022/10/09 01:03:15;;;;;;;8.00;4.83;;;;;;;;;;629780;23;998;-63
2022/10/09 01:03:31;;;;;;;7.93;4.85;;;;;;;;;;629902;23;847;-64
2022/10/09 01:03:46;;;;;;;8.20;4.80;;;;;;;;;;629825;23;855;-63
2022/10/09 01:04:01;;;;;;;7.07;4.50;;;;;;;;;;628309;23;950;-63
2022/10/09 01:04:16;;;;;;;7.72;4.47;;;;;;;;;;629998;23;1033;-63
2022/10/09 01:04:32;;;;;;;9.57;4.70;;;;;;;;;;628089;23;915;-62
2022/10/09 01:04:47;;;;;;;8.97;4.70;;;;;;;;;;628785;23;1079;-63
2022/10/09 01:05:04;;;;;;;7.20;4.55;;;;;;;;;;627004;23;1293;-63
2022/10/09 01:05:27;;;;;;;8.13;4.90;;;;;;;;;;626867;23;855;-63
2022/10/09 01:06:01;;;;;;;9.10;5.00;;;;;;;;;;626180;23;1045;-62
2022/10/09 01:06:27;;;;;;;8.88;5.40;;;;;;;;;;630171;23;1001;-63
2022/10/09 01:06:45;;;;;;;8.85;5.45;;;;;;;;;;626503;23;947;-63
2022/10/09 01:07:19;;;;;;;7.82;4.85;;;;;;;;;;629596;23;962;-63
2022/10/09 01:07:44;;;;;;;8.30;5.00;;;;;;;;;;629424;23;1069;-63
2022/10/09 01:08:21;;;;;;;7.28;4.55;;;;;;;;;;629155;23;969;-63
2022/10/09 01:08:45;;;;;;;8.23;4.57;;;;;;;;;;628231;23;990;-63
2022/10/09 01:09:07;;;;;;;8.77;4.60;;;;;;;;;;629154;23;1009;-63
2022/10/09 01:09:36;;;;;;;7.55;4.30;;;;;;;;;;629914;23;951;-63
2022/10/09 01:09:51;;;;;;;7.40;4.00;;;;;;;;;;625451;23;1018;-63
2022/10/09 01:10:16;;;;;;;8.35;4.40;;;;;;;;;;623929;23;1176;-63
2022/10/09 01:10:34;;;;;;;7.28;4.68;;;;;;;;;;625892;23;828;-63
2022/10/09 01:11:31;;;;;;;7.28;4.47;;;;;;;;;;623265;23;1134;-63
2022/10/09 01:12:05;;;;;;;8.63;4.50;;;;;;;;;;624501;23;1176;-62
2022/10/09 01:12:46;;;;;;;6.07;4.47;;;;;;;;;;626846;23;1339;-63
2022/10/09 01:13:30;;;;;;;6.82;4.70;;;;;;;;;;626234;23;990;-63
2022/10/09 01:13:47;;;;;;;8.13;4.50;;;;;;;;;;625990;23;962;-63
2022/10/09 01:14:11;;;;;;;6.88;4.45;;;;;;;;;;626710;23;1006;-63
2022/10/09 01:14:29;;;;;;;7.07;4.35;;;;;;;;;;629991;23;1216;-63
2022/10/09 01:15:01;;;;;;;6.88;4.20;;;;;;;;;;626570;23;1787;-63
2022/10/09 01:15:23;;;;;;;7.10;4.00;;;;;;;;;;629040;23;950;-63
2022/10/09 01:15:48;;;;;;;7.43;4.30;;;;;;;;;;629332;23;847;-63
2022/10/09 01:16:29;;;;;;;6.93;4.28;;;;;;;;;;629161;23;898;-63
2022/10/09 01:17:03;;;;;;;7.10;4.05;;;;;;;;;;629769;23;1170;-62
2022/10/09 01:17:31;;;;;;;6.70;4.00;;;;;;;;;;629720;23;981;-63
2022/10/09 01:17:59;;;;;;;6.18;3.90;;;;;;;;;;628908;23;997;-62
2022/10/09 01:18:29;;;;;;;6.22;4.00;;;;;;;;;;630310;23;915;-62
2022/10/09 01:18:56;;;;;;;5.10;3.78;;;;;;;;;;629312;23;1108;-63
2022/10/09 01:19:36;;;;;;;6.97;4.15;;;;;;;;;;628460;23;1437;-63
2022/10/09 01:20:19;;;;;;;5.90;4.10;;;;;;;;;;626635;23;1236;-63
2022/10/09 01:20:58;;;;;;;9.85;4.10;;;;;;;;;;626883;23;974;-63
2022/10/09 01:21:19;;;;;;;7.05;3.90;;;;;;;;;;629886;23;1045;-63
2022/10/09 01:21:42;;;;;;;7.43;3.92;;;;;;;;;;629461;23;906;-62
2022/10/09 01:22:16;;;;;;;5.97;3.95;;;;;;;;;;629742;23;867;-63
2022/10/09 01:22:44;;;;;;;6.75;4.22;;;;;;;;;;628431;23;1084;-63
2022/10/09 01:23:02;;;;;;;7.00;3.95;;;;;;;;;;630011;23;978;-63
2022/10/09 01:23:36;;;;;;;5.38;3.75;;;;;;;;;;629681;23;1219;-63
2022/10/09 01:24:26;;;;;;;6.22;3.78;;;;;;;;;;629885;23;859;-63
2022/10/09 01:24:53;;;;;;;7.35;3.95;;;;;;;;;;629761;23;1056;-63
2022/10/09 01:25:34;;;;;;;5.33;3.70;;;;;;;;;;627620;23;1064;-63
2022/10/09 01:26:25;;;;;;;8.10;4.40;;;;;;;;;;629080;23;986;-63
2022/10/09 01:26:55;;;;;;;6.43;4.10;;;;;;;;;;629832;23;872;-63
2022/10/09 01:27:20;;;;;;;6.28;3.95;;;;;;;;;;628298;23;1921;-63
2022/10/09 01:27:37;;;;;;;6.65;4.10;;;;;;;;;;625899;23;1379;-63
2022/10/09 01:27:54;;;;;;;9.23;4.13;;;;;;;;;;626429;23;1074;-63
2022/10/09 01:28:10;;;;;;;8.60;4.00;;;;;;;;;;626916;23;1181;-63
2022/10/09 01:28:27;;;;;;;5.45;3.88;;;;;;;;;;622671;23;1181;-63
2022/10/09 01:28:48;;;;;;;6.65;3.92;;;;;;;;;;621753;23;1542;-63
2022/10/09 01:29:08;;;;;;;5.85;3.95;;;;;;;;;;624595;23;950;-63
2022/10/09 01:29:30;;;;;;;6.32;3.88;;;;;;;;;;626415;23;1022;-62
2022/10/09 01:29:59;;;;;;;5.40;3.80;;;;;;;;;;626375;23;1358;-63
2022/10/09 01:30:14;;;;;;;6.05;3.80;;;;;;;;;;626696;23;1010;-63
2022/10/09 01:30:31;;;;;;;8.30;4.13;;;;;;;;;;629522;23;903;-63
2022/10/09 01:30:47;;;;;;;10.38;4.35;;;;;;;;;;626730;23;1407;-63
2022/10/09 01:31:05;;;;;;;8.57;4.15;;;;;;;;;;626635;23;990;-62
2022/10/09 01:31:23;;;;;;;8.23;4.15;;;;;;;;;;626922;23;1081;-63
2022/10/09 01:31:43;;;;;;;7.45;3.90;;;;;;;;;;624746;23;1280;-63
2022/10/09 01:32:00;;;;;;;6.53;3.97;;;;;;;;;;626179;23;1275;-62
2022/10/09 01:32:19;;;;;;;6.57;4.18;;;;;;;;;;623931;23;1379;-63
2022/10/09 01:32:42;;;;;;;6.90;4.00;;;;;;;;;;623582;23;1008;-62
2022/10/09 01:32:58;;;;;;;8.05;3.80;;;;;;;;;;623534;23;934;-62
2022/10/09 01:33:15;;;;;;;7.88;3.83;;;;;;;;;;620604;23;1327;-62
2022/10/09 01:33:32;;;;;;;6.97;3.70;;;;;;;;;;621603;23;1017;-63
2022/10/09 01:33:48;;;;;;;5.72;3.70;;;;;;;;;;620820;23;1351;-63
2022/10/09 01:34:05;;;;;;;6.53;3.80;;;;;;;;;;618112;23;962;-62
2022/10/09 01:34:22;;;;;;;6.07;3.90;;;;;;;;;;624192;23;987;-63
2022/10/09 01:34:40;;;;;;;5.50;3.70;;;;;;;;;;621151;23;1395;-63
2022/10/09 01:34:57;;;;;;;6.20;3.80;;;;;;;;;;619765;23;1324;-63
2022/10/09 01:35:14;;;;;;;6.50;4.00;;;;;;;;;;623353;23;1007;-63
2022/10/09 01:35:30;;;;;;;6.28;4.10;;;;;;;;;;624625;23;892;-64
2022/10/09 01:35:46;;;;;;;7.82;4.30;;;;;;;;;;625664;23;936;-63
2022/10/09 01:36:03;;;;;;;7.97;4.10;;;;;;;;;;626414;23;1140;-64
2022/10/09 01:36:19;;;;;;;8.13;4.30;;;;;;;;;;623427;23;1309;-63
2022/10/09 01:36:36;;;;;;;6.95;4.20;;;;;;;;;;622667;23;1341;-63
2022/10/09 01:36:52;;;;;;;5.63;4.15;;;;;;;;;;625042;23;882;-63
2022/10/09 01:37:10;;;;;;;4.82;4.10;;;;;;;;;;627660;23;895;-63
2022/10/09 01:37:27;;;;;;;4.60;3.83;;;;;;;;;;624462;23;1112;-63
2022/10/09 01:37:45;;;;;;;6.40;4.20;;;;;;;;;;625627;23;1048;-63
2022/10/09 01:38:01;;;;;;;7.30;4.40;;;;;;;;;;626758;23;989;-63
2022/10/09 01:38:19;;;;;;;7.20;4.35;;;;;;;;;;625916;23;989;-63
2022/10/09 01:38:37;;;;;;;6.93;4.10;;;;;;;;;;629496;23;1077;-64
2022/10/09 01:38:54;;;;;;;6.65;4.00;;;;;;;;;;629545;23;1051;-63
2022/10/09 01:39:14;;;;;;;6.10;4.00;;;;;;;;;;628095;23;907;-63
2022/10/09 01:39:31;;;;;;;7.88;4.20;;;;;;;;;;628314;23;935;-63
2022/10/09 01:39:47;;;;;;;6.57;4.10;;;;;;;;;;628770;23;990;-63
2022/10/09 01:40:04;;;;;;;5.18;3.85;;;;;;;;;;626611;23;1241;-64
2022/10/09 01:40:20;;;;;;;7.93;3.90;;;;;;;;;;630151;23;923;-63
2022/10/09 01:40:36;;;;;;;8.82;4.03;;;;;;;;;;630304;23;855;-63
2022/10/09 01:40:52;;;;;;;8.65;4.18;;;;;;;;;;626997;23;908;-63
2022/10/09 01:41:08;;;;;;;7.35;4.20;;;;;;;;;;630562;23;875;-63
2022/10/09 01:41:24;;;;;;;6.32;3.92;;;;;;;;;;630170;23;890;-63
2022/10/09 01:41:39;;;;;;;7.22;3.90;;;;;;;;;;630086;23;994;-63
2022/10/09 01:41:54;;;;;;;6.80;3.90;;;;;;;;;;628508;23;892;-63
2022/10/09 01:42:12;;;;;;;6.10;3.97;;;;;;;;;;630270;23;954;-63
2022/10/09 01:42:28;;;;;;;7.32;4.32;;;;;;;;;;629833;23;914;-63
2022/10/09 01:42:45;;;;;;;6.95;4.10;;;;;;;;;;630577;23;948;-63
2022/10/09 01:43:00;;;;;;;6.75;3.75;;;;;;;;;;629998;23;879;-63
2022/10/09 01:43:16;;;;;;;7.82;3.92;;;;;;;;;;630151;23;955;-62
2022/10/09 01:43:31;;;;;;;7.83;4.00;;;;;;;;;;629533;23;920;-63
2022/10/09 01:43:46;;;;;;;7.10;3.80;;;;;;;;;;629970;23;994;-63
2022/10/09 01:44:02;;;;;;;7.57;3.90;;;;;;;;;;625937;23;1284;-63
2022/10/09 01:44:21;;;;;;;8.40;4.07;;;;;;;;;;623655;23;1085;-63
2022/10/09 01:44:37;;;;;;;7.07;4.13;;;;;;;;;;624318;23;828;-63
2022/10/09 01:44:52;;;;;;;7.00;4.10;;;;;;;;;;623814;23;1026;-62
2022/10/09 01:45:08;;;;;;;7.10;3.87;;;;;;;;;;623940;23;1397;-63
2022/10/09 01:45:24;;;;;;;6.13;3.60;;;;;;;;;;626853;23;934;-63
2022/10/09 01:45:43;;;;;;;6.23;3.93;;;;;;;;;;624002;23;1225;-63
2022/10/09 01:46:26;;;;;;;7.03;4.20;;;;;;;;;;623907;23;1006;-64
2022/10/09 01:46:41;;;;;;;6.68;3.90;;;;;;;;;;629784;23;962;-63
2022/10/09 01:46:57;;;;;;;6.80;3.90;;;;;;;;;;630028;23;929;-63
2022/10/09 01:47:17;;;;;;;6.55;3.75;;;;;;;;;;627245;23;1952;-63
2022/10/09 01:47:33;;;;;;;8.35;3.90;;;;;;;;;;624588;23;1116;-62
2022/10/09 01:47:48;;;;;;;9.30;4.03;;;;;;;;;;626686;23;838;-63
2022/10/09 01:48:04;;;;;;;8.47;4.07;;;;;;;;;;626398;23;994;-63
2022/10/09 01:48:23;;;;;;;6.82;4.03;;;;;;;;;;623056;23;1150;-64
2022/10/09 01:48:39;;;;;;;6.25;4.10;;;;;;;;;;624257;23;875;-63
2022/10/09 01:49:36;;;;;;;6.53;4.10;;;;;;;;;;622722;23;1185;-63
2022/10/09 01:50:15;;;;;;;6.03;4.10;;;;;;;;;;629006;23;1396;-63
2022/10/09 01:50:35;;;;;;;7.72;4.25;;;;;;;;;;632899;23;1149;-63
2022/10/09 01:51:00;;;;;;;6.22;4.13;;;;;;;;;;628890;23;1306;-63
2022/10/09 01:51:20;;;;;;;5.78;4.10;;;;;;;;;;626424;23;1537;-63
2022/10/09 01:51:44;;;;;;;6.70;4.30;;;;;;;;;;625400;23;931;-63
2022/10/09 01:52:12;;;;;;;8.02;3.95;;;;;;;;;;627014;23;874;-63
2022/10/09 01:52:34;;;;;;;6.95;3.83;;;;;;;;;;623498;23;1419;-63
2022/10/09 01:52:54;;;;;;;7.10;3.80;;;;;;;;;;626390;23;930;-63
2022/10/09 01:53:16;;;;;;;7.80;4.10;;;;;;;;;;624931;23;1337;-63
2022/10/09 01:53:33;;;;;;;6.57;4.00;;;;;;;;;;627069;23;879;-63
2022/10/09 01:53:53;;;;;;;5.55;3.85;;;;;;;;;;626823;23;848;-63
2022/10/09 01:54:12;;;;;;;5.30;3.83;;;;;;;;;;627091;23;1160;-63
2022/10/09 01:54:37;;;;;;;5.65;3.90;;;;;;;;;;629731;23;954;-63
2022/10/09 01:55:07;;;;;;;5.50;3.83;;;;;;;;;;630014;23;899;-63
2022/10/09 01:55:28;;;;;;;6.93;3.90;;;;;;;;;;630012;23;909;-63
2022/10/09 01:55:49;;;;;;;6.93;3.70;;;;;;;;;;629888;23;857;-63
2022/10/09 01:56:13;;;;;;;6.88;3.80;;;;;;;;;;629214;23;1073;-63
2022/10/09 01:56:33;;;;;;;6.25;3.80;;;;;;;;;;629808;23;936;-63
2022/10/09 01:56:51;;;;;;;6.97;3.75;;;;;;;;;;626327;23;1454;-63
2022/10/09 01:57:08;;;;;;;6.82;3.60;;;;;;;;;;626801;23;1390;-63
2022/10/09 01:57:39;;;;;;;7.75;3.83;;;;;;;;;;626619;23;1013;-63
2022/10/09 01:58:09;;;;;;;6.35;3.80;;;;;;;;;;625620;23;955;-63